createdAt,value
2017-10-02T00:01:39.558Z,16.80
2017-10-02T00:04:07.008Z,16.70
2017-10-02T00:06:34.470Z,16.80
2017-10-02T00:09:01.958Z,16.80
2017-10-02T00:11:30.170Z,16.80
2017-10-02T00:13:57.634Z,16.70
2017-10-02T00:16:25.105Z,16.70
2017-10-02T00:18:52.549Z,16.70
2017-10-02T00:21:20.025Z,16.80
2017-10-02T00:23:47.498Z,16.70
2017-10-02T00:26:14.978Z,16.80
2017-10-02T00:28:43.247Z,16.80
2017-10-02T00:31:11.470Z,16.70
2017-10-02T00:33:38.950Z,16.70
2017-10-02T00:36:06.430Z,16.70
2017-10-02T00:38:33.880Z,16.70
2017-10-02T00:41:01.370Z,16.70
2017-10-02T00:43:29.616Z,16.70
2017-10-02T00:45:57.071Z,16.70
2017-10-02T00:48:24.576Z,16.70
2017-10-02T00:50:52.030Z,16.70
2017-10-02T00:53:19.507Z,16.70
2017-10-02T00:55:47.025Z,16.80
2017-10-02T00:58:14.482Z,16.80
2017-10-02T01:00:41.942Z,16.80
2017-10-02T01:03:09.445Z,16.80
2017-10-02T01:05:36.909Z,16.80
2017-10-02T01:08:04.365Z,16.80
2017-10-02T01:10:31.861Z,16.70
2017-10-02T01:12:59.326Z,16.70
2017-10-02T01:15:26.790Z,16.70
2017-10-02T01:17:55.961Z,16.80
2017-10-02T01:20:23.413Z,16.70
2017-10-02T01:22:50.868Z,16.80
2017-10-02T01:25:18.362Z,16.80
2017-10-02T01:27:45.818Z,16.80
2017-10-02T01:30:13.292Z,16.80
2017-10-02T01:32:40.741Z,16.80
2017-10-02T01:35:08.990Z,16.80
2017-10-02T01:37:36.437Z,16.80
2017-10-02T01:40:03.897Z,16.80
2017-10-02T01:42:31.363Z,16.80
2017-10-02T01:44:58.838Z,16.80
2017-10-02T01:47:26.314Z,16.80
2017-10-02T01:49:53.885Z,16.80
2017-10-02T01:52:21.353Z,16.80
2017-10-02T01:54:48.818Z,16.80
2017-10-02T01:57:16.296Z,16.70
2017-10-02T01:59:43.741Z,16.70
2017-10-02T02:02:11.198Z,16.70
2017-10-02T02:04:38.669Z,16.60
2017-10-02T02:07:06.121Z,16.60
2017-10-02T02:09:33.590Z,16.60
2017-10-02T02:12:01.077Z,16.60
2017-10-02T02:14:28.530Z,16.60
2017-10-02T02:16:56.185Z,16.60
2017-10-02T02:19:23.644Z,16.60
2017-10-02T02:21:51.100Z,16.60
2017-10-02T02:24:18.574Z,16.60
2017-10-02T02:26:46.046Z,16.60
2017-10-02T02:29:13.529Z,16.60
2017-10-02T02:31:40.991Z,16.60
2017-10-02T02:34:08.447Z,16.60
2017-10-02T02:36:35.953Z,16.60
2017-10-02T02:39:03.757Z,16.60
2017-10-02T02:41:31.345Z,16.60
2017-10-02T02:43:58.832Z,16.60
2017-10-02T02:46:26.730Z,16.60
2017-10-02T02:48:54.286Z,16.60
2017-10-02T02:51:22.533Z,16.60
2017-10-02T02:53:49.987Z,16.60
2017-10-02T02:56:17.473Z,16.60
2017-10-02T02:58:45.694Z,16.60
2017-10-02T03:01:13.170Z,16.50
2017-10-02T03:03:40.631Z,16.60
2017-10-02T03:06:08.110Z,16.60
2017-10-02T03:08:35.581Z,16.60
2017-10-02T03:11:03.801Z,16.60
2017-10-02T03:13:31.288Z,16.50
2017-10-02T03:15:58.736Z,16.60
2017-10-02T03:18:26.209Z,16.60
2017-10-02T03:20:53.657Z,16.60
2017-10-02T03:23:21.906Z,16.60
2017-10-02T03:25:49.385Z,16.60
2017-10-02T03:28:16.866Z,16.60
2017-10-02T03:30:44.616Z,16.60
2017-10-02T03:33:12.078Z,16.60
2017-10-02T03:35:39.553Z,16.60
2017-10-02T03:38:07.001Z,16.60
2017-10-02T03:40:34.456Z,16.60
2017-10-02T03:43:01.937Z,16.60
2017-10-02T03:45:29.409Z,16.60
2017-10-02T03:47:58.597Z,16.60
2017-10-02T03:50:27.774Z,16.60
2017-10-02T03:52:55.294Z,16.50
2017-10-02T03:55:22.750Z,16.60
2017-10-02T03:57:50.237Z,16.60
2017-10-02T04:00:17.697Z,16.60
2017-10-02T04:02:45.149Z,16.60
2017-10-02T04:05:12.633Z,16.60
2017-10-02T04:07:40.103Z,16.60
2017-10-02T04:10:07.550Z,16.60
2017-10-02T04:12:35.161Z,16.60
2017-10-02T04:15:02.617Z,16.60
2017-10-02T04:17:30.070Z,16.60
2017-10-02T04:19:58.469Z,16.60
2017-10-02T04:22:25.938Z,16.60
2017-10-02T04:24:53.416Z,16.60
2017-10-02T04:27:20.968Z,16.70
2017-10-02T04:29:48.434Z,16.70
2017-10-02T04:32:15.909Z,16.70
2017-10-02T04:34:44.148Z,16.80
2017-10-02T04:37:11.602Z,16.70
2017-10-02T04:39:39.121Z,16.80
2017-10-02T04:42:06.578Z,16.80
2017-10-02T04:44:34.818Z,16.70
2017-10-02T04:47:02.282Z,16.70
2017-10-02T04:49:29.772Z,16.70
2017-10-02T04:51:57.221Z,16.80
2017-10-02T04:54:25.435Z,16.70
2017-10-02T04:56:52.920Z,16.70
2017-10-02T04:59:20.378Z,16.80
2017-10-02T05:01:47.829Z,16.80
2017-10-02T05:04:15.306Z,16.80
2017-10-02T05:06:42.756Z,16.80
2017-10-02T05:09:10.261Z,16.80
2017-10-02T05:11:37.728Z,16.80
2017-10-02T05:14:05.218Z,16.80
2017-10-02T05:16:32.671Z,16.90
2017-10-02T05:19:00.132Z,16.90
2017-10-02T05:21:27.614Z,16.90
2017-10-02T05:23:55.070Z,16.90
2017-10-02T05:26:22.522Z,16.90
2017-10-02T05:28:49.995Z,16.90
2017-10-02T05:31:17.464Z,16.90
2017-10-02T05:33:45.689Z,16.90
2017-10-02T05:36:13.230Z,16.90
2017-10-02T05:38:44.749Z,16.80
2017-10-02T05:41:12.361Z,16.90
2017-10-02T05:43:39.848Z,16.90
2017-10-02T05:46:07.304Z,16.90
2017-10-02T05:48:34.772Z,17.00
2017-10-02T05:51:02.254Z,16.90
2017-10-02T05:53:30.173Z,17.00
2017-10-02T05:55:57.654Z,17.00
2017-10-02T05:58:25.118Z,17.00
2017-10-02T06:00:53.099Z,17.00
2017-10-02T06:03:21.567Z,17.10
2017-10-02T06:05:49.632Z,17.10
2017-10-02T06:08:17.742Z,17.10
2017-10-02T06:10:46.606Z,17.10
2017-10-02T06:13:14.107Z,17.20
2017-10-02T06:15:41.585Z,17.20
2017-10-02T06:18:09.065Z,17.20
2017-10-02T06:20:36.542Z,17.20
2017-10-02T06:23:04.010Z,17.20
2017-10-02T06:25:32.242Z,17.10
2017-10-02T06:27:59.758Z,17.10
2017-10-02T06:30:28.010Z,17.10
2017-10-02T06:32:55.466Z,17.10
2017-10-02T06:35:23.718Z,17.10
2017-10-02T06:37:51.175Z,17.10
2017-10-02T06:40:18.654Z,17.20
2017-10-02T06:42:46.117Z,17.20
2017-10-02T06:45:13.574Z,17.20
2017-10-02T06:47:41.057Z,17.20
2017-10-02T06:50:08.505Z,17.20
2017-10-02T06:52:36.806Z,17.30
2017-10-02T06:55:04.269Z,17.30
2017-10-02T06:57:31.720Z,17.30
2017-10-02T06:59:59.221Z,17.30
2017-10-02T07:02:26.669Z,17.30
2017-10-02T07:04:54.152Z,17.30
2017-10-02T07:07:21.620Z,17.40
2017-10-02T07:09:49.070Z,17.40
2017-10-02T07:12:16.569Z,17.40
2017-10-02T07:14:44.023Z,17.40
2017-10-02T07:17:11.478Z,17.40
2017-10-02T07:19:38.965Z,17.50
2017-10-02T07:22:06.413Z,17.50
2017-10-02T07:24:33.860Z,17.50
2017-10-02T07:27:02.801Z,17.60
2017-10-02T07:29:30.306Z,17.60
2017-10-02T07:31:57.797Z,17.60
2017-10-02T07:34:25.259Z,17.60
2017-10-02T07:36:52.720Z,17.60
2017-10-02T07:39:20.198Z,17.60
2017-10-02T07:41:47.677Z,17.60
2017-10-02T07:44:15.137Z,17.70
2017-10-02T07:46:42.613Z,17.70
2017-10-02T07:49:10.075Z,17.70
2017-10-02T07:51:37.533Z,17.70
2017-10-02T07:54:05.025Z,17.70
2017-10-02T07:56:33.489Z,17.80
2017-10-02T07:59:01.001Z,17.80
2017-10-02T08:01:29.240Z,17.90
2017-10-02T08:03:56.724Z,17.90
2017-10-02T08:06:24.194Z,18.00
2017-10-02T08:08:51.642Z,18.00
2017-10-02T08:11:19.120Z,18.00
2017-10-02T08:13:47.343Z,18.10
2017-10-02T08:16:14.789Z,18.10
2017-10-02T08:18:42.297Z,18.10
2017-10-02T08:21:09.763Z,18.10
2017-10-02T08:23:37.998Z,18.20
2017-10-02T08:26:05.493Z,18.10
2017-10-02T08:28:33.377Z,18.20
2017-10-02T08:31:01.629Z,18.10
2017-10-02T08:33:29.125Z,18.10
2017-10-02T08:35:56.582Z,18.00
2017-10-02T08:38:24.046Z,18.00
2017-10-02T08:40:51.521Z,18.00
2017-10-02T08:43:18.972Z,18.10
2017-10-02T08:45:46.462Z,18.10
2017-10-02T08:48:13.916Z,18.10
2017-10-02T08:50:41.401Z,18.10
2017-10-02T08:53:08.873Z,18.10
2017-10-02T08:55:36.379Z,18.10
2017-10-02T08:58:04.698Z,18.10
2017-10-02T09:00:32.157Z,18.10
2017-10-02T09:02:59.633Z,18.10
2017-10-02T09:05:27.853Z,18.30
2017-10-02T09:07:55.323Z,18.30
2017-10-02T09:10:22.814Z,18.50
2017-10-02T09:12:51.069Z,18.70
2017-10-02T09:15:18.536Z,18.70
2017-10-02T09:17:45.985Z,18.80
2017-10-02T09:20:13.481Z,18.90
2017-10-02T09:22:40.937Z,18.90
2017-10-02T09:25:08.434Z,19.10
2017-10-02T09:27:35.889Z,19.20
2017-10-02T09:30:03.354Z,19.50
2017-10-02T09:32:30.848Z,19.80
2017-10-02T09:34:58.300Z,19.80
2017-10-02T09:37:25.754Z,19.90
2017-10-02T09:39:53.250Z,20.00
2017-10-02T09:42:20.706Z,20.00
2017-10-02T09:44:48.162Z,20.00
2017-10-02T09:47:15.645Z,20.10
2017-10-02T09:49:43.190Z,20.30
2017-10-02T09:52:10.661Z,20.50
2017-10-02T09:54:38.155Z,20.50
2017-10-02T09:57:05.609Z,20.30
2017-10-02T09:59:33.081Z,20.10
2017-10-02T10:02:00.566Z,19.90
2017-10-02T10:04:28.029Z,19.60
2017-10-02T10:06:55.474Z,19.30
2017-10-02T10:09:22.960Z,19.00
2017-10-02T10:11:50.409Z,18.80
2017-10-02T10:14:17.906Z,18.70
2017-10-02T10:16:45.373Z,18.60
2017-10-02T10:19:12.862Z,18.50
2017-10-02T10:21:41.122Z,18.40
2017-10-02T10:24:08.586Z,18.40
2017-10-02T10:26:36.825Z,18.30
2017-10-02T10:29:04.301Z,18.30
2017-10-02T10:31:31.814Z,18.30
2017-10-02T10:33:59.285Z,18.40
2017-10-02T10:36:26.733Z,18.50
2017-10-02T10:38:54.212Z,18.70
2017-10-02T10:41:21.674Z,18.90
2017-10-02T10:43:49.169Z,19.20
2017-10-02T10:46:16.621Z,19.30
2017-10-02T10:48:44.077Z,19.40
2017-10-02T10:51:11.552Z,19.50
2017-10-02T10:53:39.773Z,19.50
2017-10-02T10:56:07.249Z,19.50
2017-10-02T10:58:34.703Z,19.60
2017-10-02T11:01:02.198Z,19.70
2017-10-02T11:03:29.681Z,19.90
2017-10-02T11:05:57.188Z,20.20
2017-10-02T11:08:24.617Z,20.30
2017-10-02T11:10:52.079Z,20.30
2017-10-02T11:13:19.577Z,20.30
2017-10-02T11:15:47.047Z,20.40
2017-10-02T11:18:14.537Z,20.60
2017-10-02T11:20:42.005Z,20.80
2017-10-02T11:23:09.473Z,20.90
2017-10-02T11:25:36.950Z,21.00
2017-10-02T11:28:04.437Z,21.10
2017-10-02T11:30:31.894Z,21.20
2017-10-02T11:32:59.344Z,21.30
2017-10-02T11:35:26.817Z,21.30
2017-10-02T11:37:54.269Z,21.20
2017-10-02T11:40:21.758Z,21.10
2017-10-02T11:42:49.222Z,21.00
2017-10-02T11:45:16.722Z,21.00
2017-10-02T11:47:44.173Z,21.00
2017-10-02T11:50:12.389Z,21.30
2017-10-02T11:52:40.661Z,21.50
2017-10-02T11:55:08.126Z,21.50
2017-10-02T11:57:35.580Z,21.70
2017-10-02T12:00:03.085Z,21.60
2017-10-02T12:02:30.540Z,21.40
2017-10-02T12:04:58.006Z,21.20
2017-10-02T12:07:25.504Z,21.10
2017-10-02T12:09:52.981Z,21.00
2017-10-02T12:12:21.205Z,20.90
2017-10-02T12:14:48.686Z,20.90
2017-10-02T12:17:16.145Z,20.80
2017-10-02T12:19:43.625Z,20.70
2017-10-02T12:22:11.089Z,20.60
2017-10-02T12:24:39.328Z,20.60
2017-10-02T12:27:07.453Z,20.60
2017-10-02T12:29:34.910Z,20.70
2017-10-02T12:32:02.367Z,20.80
2017-10-02T12:34:29.845Z,21.00
2017-10-02T12:36:57.321Z,21.20
2017-10-02T12:39:24.825Z,21.40
2017-10-02T12:41:53.067Z,21.30
2017-10-02T12:44:20.521Z,21.30
2017-10-02T12:46:47.995Z,21.40
2017-10-02T12:49:15.472Z,21.70
2017-10-02T12:51:43.714Z,21.80
2017-10-02T12:54:11.173Z,21.80
2017-10-02T12:56:38.682Z,21.70
2017-10-02T12:59:06.277Z,21.70
2017-10-02T13:01:33.746Z,21.60
2017-10-02T13:04:01.221Z,21.40
2017-10-02T13:06:28.677Z,21.40
2017-10-02T13:08:56.173Z,21.50
2017-10-02T13:11:24.402Z,22.00
2017-10-02T13:13:51.901Z,22.00
2017-10-02T13:16:20.121Z,22.50
2017-10-02T13:18:47.576Z,22.50
2017-10-02T13:21:15.060Z,24.10
2017-10-02T13:23:42.561Z,25.60
2017-10-02T13:26:10.021Z,26.90
2017-10-02T13:28:38.481Z,28.10
2017-10-02T13:31:06.755Z,29.60
2017-10-02T13:33:34.214Z,29.60
2017-10-02T13:36:02.474Z,28.60
2017-10-02T13:38:29.953Z,28.60
2017-10-02T13:40:58.210Z,26.10
2017-10-02T13:43:25.683Z,26.00
2017-10-02T13:45:53.133Z,25.10
2017-10-02T13:48:20.584Z,24.40
2017-10-02T13:50:48.065Z,25.20
2017-10-02T13:53:16.426Z,28.40
2017-10-02T13:55:43.898Z,28.30
2017-10-02T13:58:12.165Z,30.30
2017-10-02T14:00:39.621Z,30.30
2017-10-02T14:03:07.073Z,29.20
2017-10-02T14:05:34.553Z,28.40
2017-10-02T14:08:02.012Z,27.70
2017-10-02T14:10:29.529Z,27.20
2017-10-02T14:12:57.001Z,26.70
2017-10-02T14:15:24.490Z,26.20
2017-10-02T14:17:52.710Z,25.10
2017-10-02T14:20:20.161Z,25.00
2017-10-02T14:22:47.655Z,24.40
2017-10-02T14:25:15.135Z,23.90
2017-10-02T14:27:43.357Z,23.20
2017-10-02T14:30:10.915Z,23.20
2017-10-02T14:32:40.058Z,23.20
2017-10-02T14:35:07.574Z,23.10
2017-10-02T14:37:35.054Z,23.80
2017-10-02T14:40:02.517Z,24.50
2017-10-02T14:42:29.981Z,24.30
2017-10-02T14:44:57.473Z,23.70
2017-10-02T14:47:25.719Z,22.80
2017-10-02T14:49:53.177Z,22.80
2017-10-02T14:52:20.663Z,22.50
2017-10-02T14:54:48.909Z,21.90
2017-10-02T14:57:16.366Z,21.90
2017-10-02T14:59:43.879Z,21.80
2017-10-02T15:02:11.362Z,21.60
2017-10-02T15:04:38.818Z,21.30
2017-10-02T15:07:06.310Z,21.20
2017-10-02T15:09:33.793Z,21.00
2017-10-02T15:12:02.032Z,20.70
2017-10-02T15:14:29.494Z,20.70
2017-10-02T15:16:56.989Z,20.60
2017-10-02T15:19:24.448Z,20.50
2017-10-02T15:21:51.934Z,20.50
2017-10-02T15:24:19.389Z,20.40
2017-10-02T15:26:46.877Z,20.40
2017-10-02T15:29:14.356Z,20.40
2017-10-02T15:31:41.813Z,20.40
2017-10-02T15:34:09.281Z,20.40
2017-10-02T15:36:37.526Z,21.80
2017-10-02T15:39:05.006Z,21.80
2017-10-02T15:41:32.482Z,22.20
2017-10-02T15:44:00.752Z,21.50
2017-10-02T15:46:28.973Z,21.00
2017-10-02T15:48:56.449Z,21.00
2017-10-02T15:51:23.906Z,20.90
2017-10-02T15:53:51.384Z,20.90
2017-10-02T15:56:18.842Z,21.00
2017-10-02T15:58:46.448Z,21.30
2017-10-02T16:01:13.898Z,21.10
2017-10-02T16:03:41.349Z,20.80
2017-10-02T16:06:08.831Z,20.50
2017-10-02T16:08:36.283Z,20.20
2017-10-02T16:11:03.749Z,20.00
2017-10-02T16:13:31.232Z,19.70
2017-10-02T16:15:58.714Z,19.50
2017-10-02T16:18:26.165Z,19.30
2017-10-02T16:20:53.637Z,19.20
2017-10-02T16:23:21.893Z,19.10
2017-10-02T16:25:49.346Z,19.00
2017-10-02T16:28:16.838Z,18.90
2017-10-02T16:30:45.083Z,18.70
2017-10-02T16:33:12.541Z,18.70
2017-10-02T16:35:40.053Z,18.60
2017-10-02T16:38:07.679Z,18.50
2017-10-02T16:40:35.149Z,18.40
2017-10-02T16:43:03.365Z,18.30
2017-10-02T16:45:30.839Z,18.30
2017-10-02T16:47:58.297Z,18.20
2017-10-02T16:50:25.811Z,18.20
2017-10-02T16:52:54.034Z,18.20
2017-10-02T16:55:21.517Z,18.20
2017-10-02T16:57:48.971Z,18.10
2017-10-02T17:00:16.422Z,18.10
2017-10-02T17:02:43.917Z,18.00
2017-10-02T17:05:12.741Z,17.90
2017-10-02T17:07:40.217Z,17.90
2017-10-02T17:10:07.701Z,17.90
2017-10-02T17:12:37.914Z,17.90
2017-10-02T17:15:05.392Z,17.80
2017-10-02T17:17:33.652Z,17.70
2017-10-02T17:20:01.105Z,17.80
2017-10-02T17:22:28.562Z,17.80
2017-10-02T17:24:56.038Z,17.80
2017-10-02T17:27:23.571Z,17.80
2017-10-02T17:29:51.456Z,17.70
2017-10-02T17:32:19.018Z,17.70
2017-10-02T17:34:46.471Z,17.70
2017-10-02T17:37:13.960Z,17.60
2017-10-02T17:39:43.121Z,17.60
2017-10-02T17:42:10.629Z,17.60
2017-10-02T17:44:38.154Z,17.60
2017-10-02T17:47:05.602Z,17.60
2017-10-02T17:49:33.083Z,17.50
2017-10-02T17:52:01.325Z,17.30
2017-10-02T17:54:28.835Z,17.30
2017-10-02T17:56:56.313Z,17.30
2017-10-02T17:59:23.770Z,17.30
2017-10-02T18:01:51.224Z,17.20
2017-10-02T18:04:18.703Z,17.20
2017-10-02T18:06:46.212Z,17.30
2017-10-02T18:09:14.465Z,17.20
2017-10-02T18:11:41.952Z,17.20
2017-10-02T18:14:10.182Z,17.20
2017-10-02T18:16:37.682Z,17.20
2017-10-02T18:19:05.954Z,17.20
2017-10-02T18:21:34.182Z,17.20
2017-10-02T18:24:01.685Z,17.20
2017-10-02T18:26:29.169Z,17.20
2017-10-02T18:28:56.629Z,17.20
2017-10-02T18:31:24.081Z,17.20
2017-10-02T18:33:51.565Z,17.20
2017-10-02T18:36:19.039Z,17.20
2017-10-02T18:38:46.540Z,17.20
2017-10-02T18:41:14.024Z,17.30
2017-10-02T18:43:41.468Z,17.30
2017-10-02T18:46:08.929Z,17.30
2017-10-02T18:48:36.516Z,17.30
2017-10-02T18:51:04.046Z,17.30
2017-10-02T18:53:32.568Z,17.30
2017-10-02T18:56:00.045Z,17.30
2017-10-02T18:58:27.706Z,17.30
2017-10-02T19:00:55.152Z,17.30
2017-10-02T19:03:22.633Z,17.30
2017-10-02T19:05:50.164Z,17.30
2017-10-02T19:08:17.635Z,17.20
2017-10-02T19:10:45.126Z,17.10
2017-10-02T19:13:12.603Z,17.10
2017-10-02T19:15:40.072Z,17.10
2017-10-02T19:18:07.596Z,17.00
2017-10-02T19:20:35.125Z,17.00
2017-10-02T19:23:02.616Z,17.00
2017-10-02T19:25:30.840Z,16.90
2017-10-02T19:27:59.110Z,16.90
2017-10-02T19:30:26.581Z,16.80
2017-10-02T19:32:54.076Z,16.80
2017-10-02T19:35:21.538Z,16.80
2017-10-02T19:37:48.996Z,16.80
2017-10-02T19:40:16.493Z,16.80
2017-10-02T19:42:44.888Z,16.80
2017-10-02T19:45:12.368Z,16.80
2017-10-02T19:47:39.825Z,16.80
2017-10-02T19:50:07.312Z,16.80
2017-10-02T19:52:34.803Z,16.80
2017-10-02T19:55:02.277Z,16.70
2017-10-02T19:57:29.741Z,16.70
2017-10-02T19:59:57.193Z,16.60
2017-10-02T20:02:24.688Z,16.60
2017-10-02T20:04:52.157Z,16.50
2017-10-02T20:07:19.613Z,16.50
2017-10-02T20:09:47.092Z,16.50
2017-10-02T20:12:15.187Z,16.50
2017-10-02T20:14:42.721Z,16.50
2017-10-02T20:17:10.193Z,16.50
2017-10-02T20:19:37.657Z,16.50
2017-10-02T20:22:05.149Z,16.50
2017-10-02T20:24:32.617Z,16.50
2017-10-02T20:27:00.113Z,16.50
2017-10-02T20:29:28.371Z,16.40
2017-10-02T20:31:55.916Z,16.40
2017-10-02T20:34:23.371Z,16.40
2017-10-02T20:36:50.832Z,16.40
2017-10-02T20:39:18.304Z,16.40
2017-10-02T20:41:45.789Z,16.40
2017-10-02T20:44:13.270Z,16.40
2017-10-02T20:46:40.752Z,16.40
2017-10-02T20:49:08.287Z,16.30
2017-10-02T20:51:35.800Z,16.30
2017-10-02T20:54:03.265Z,16.30
2017-10-02T20:56:30.710Z,16.30
2017-10-02T20:58:58.189Z,16.30
2017-10-02T21:01:26.413Z,16.30
2017-10-02T21:03:53.902Z,16.30
2017-10-02T21:06:21.361Z,16.30
2017-10-02T21:08:48.872Z,16.30
2017-10-02T21:11:16.360Z,16.30
2017-10-02T21:13:43.817Z,16.30
2017-10-02T21:16:11.305Z,16.30
2017-10-02T21:18:38.762Z,16.30
2017-10-02T21:21:06.225Z,16.30
2017-10-02T21:23:33.697Z,16.30
2017-10-02T21:26:01.188Z,16.20
2017-10-02T21:28:28.676Z,16.20
2017-10-02T21:30:56.130Z,16.20
2017-10-02T21:33:23.585Z,16.10
2017-10-02T21:35:51.059Z,16.10
2017-10-02T21:38:18.575Z,16.10
2017-10-02T21:40:47.576Z,16.10
2017-10-02T21:43:15.042Z,16.10
2017-10-02T21:45:42.521Z,16.10
2017-10-02T21:48:09.977Z,16.00
2017-10-02T21:50:37.437Z,16.00
2017-10-02T21:53:04.905Z,16.00
2017-10-02T21:55:32.357Z,16.00
2017-10-02T21:57:59.833Z,16.00
2017-10-02T22:00:27.334Z,15.90
2017-10-02T22:02:55.529Z,15.90
2017-10-02T22:05:23.006Z,15.90
2017-10-02T22:07:50.457Z,15.90
2017-10-02T22:10:17.941Z,15.90
2017-10-02T22:12:45.413Z,15.90
2017-10-02T22:15:12.885Z,15.90
2017-10-02T22:17:40.338Z,15.90
2017-10-02T22:20:07.828Z,15.80
2017-10-02T22:22:35.281Z,15.80
2017-10-02T22:25:02.757Z,15.70
2017-10-02T22:27:30.232Z,15.70
2017-10-02T22:29:57.711Z,15.70
2017-10-02T22:32:25.186Z,15.60
2017-10-02T22:34:53.425Z,15.70
2017-10-02T22:37:20.906Z,15.60
2017-10-02T22:39:49.122Z,15.60
2017-10-02T22:42:16.599Z,15.60
2017-10-02T22:44:44.129Z,15.60
2017-10-02T22:47:11.605Z,15.60
2017-10-02T22:49:39.058Z,15.50
2017-10-02T22:52:06.506Z,15.50
2017-10-02T22:54:33.978Z,15.40
2017-10-02T22:57:01.436Z,15.40
2017-10-02T22:59:28.917Z,15.30
2017-10-02T23:01:56.370Z,15.30
2017-10-02T23:04:23.850Z,15.30
2017-10-02T23:06:51.333Z,15.30
2017-10-02T23:09:19.565Z,15.40
2017-10-02T23:11:47.090Z,15.30
2017-10-02T23:14:14.540Z,15.30
2017-10-02T23:16:42.023Z,15.30
2017-10-02T23:19:09.498Z,15.30
2017-10-02T23:21:36.977Z,15.30
2017-10-02T23:24:04.475Z,15.30
2017-10-02T23:26:31.961Z,15.30
2017-10-02T23:28:59.421Z,15.30
2017-10-02T23:31:26.904Z,15.30
2017-10-02T23:33:54.381Z,15.30
2017-10-02T23:36:22.624Z,15.30
2017-10-02T23:38:50.108Z,15.30
2017-10-02T23:41:17.561Z,15.30
2017-10-02T23:43:45.044Z,15.30
2017-10-02T23:46:12.507Z,15.30
2017-10-02T23:48:39.973Z,15.20
2017-10-02T23:51:07.468Z,15.20
2017-10-02T23:53:35.698Z,15.10
2017-10-02T23:56:03.150Z,15.10
2017-10-02T23:58:30.744Z,15.10
